Time;durP1;ratioP1;P1;durP2;ratioP2;P2;SDS_P1;SDS_P2;PMS_P1;PMS_P2;Temp;Humidity;BMP_temperature;BMP_pressure;BME280_temperature;BME280_humidity;BME280_pressure;Samples;Min_cycle;Max_cycle;Signal;HPM_P1;HPM_P2
2022/07/29 00:00:00;;;;;;;23.75;15.85;;;;;;;18.31;100.00;95121.28;5033260;28;20041;-77
2022/07/29 00:02:27;;;;;;;21.63;15.65;;;;;;;18.34;100.00;95130.47;5033776;28;20048;-77
2022/07/29 00:04:54;;;;;;;24.08;15.45;;;;;;;18.31;100.00;95131.00;5049910;28;20249;-77
2022/07/29 00:07:21;;;;;;;19.25;15.48;;;;;;;18.34;100.00;95135.75;5051342;28;20048;-76
2022/07/29 00:09:48;;;;;;;21.98;16.33;;;;;;;18.42;100.00;95155.47;5028982;28;20041;-77
2022/07/29 00:12:19;;;;;;;20.73;15.73;;;;;;;18.43;100.00;95155.19;5050384;28;20051;-76
2022/07/29 00:14:55;;;;;;;;;;;;;;;18.45;100.00;95154.94;5051741;28;20040;-76
2022/07/29 00:17:23;;;;;;;19.85;15.65;;;;;;;18.29;100.00;95139.22;5025520;28;19931;-77
2022/07/29 00:19:50;;;;;;;18.35;14.43;;;;;;;18.44;100.00;95167.34;5013200;28;20041;-77
2022/07/29 00:22:19;;;;;;;22.83;16.65;;;;;;;18.42;100.00;95156.28;5042155;28;20049;-77
2022/07/29 00:24:49;;;;;;;20.88;16.30;;;;;;;18.42;100.00;95151.00;5041297;28;20044;-77
2022/07/29 00:27:17;;;;;;;24.60;16.65;;;;;;;18.50;100.00;95166.25;5021192;28;20052;-76
2022/07/29 00:29:44;;;;;;;20.95;15.82;;;;;;;18.44;100.00;95156.78;5045588;28;20127;-77
2022/07/29 00:32:11;;;;;;;18.83;15.02;;;;;;;18.46;100.00;95170.50;5041256;28;20059;-76
2022/07/29 00:37:24;;;;;;;22.55;14.88;;;;;;;18.27;100.00;95151.06;5045759;28;20033;-76
2022/07/29 00:39:51;;;;;;;23.88;16.73;;;;;;;18.32;100.00;95158.97;5045067;28;20041;-76
2022/07/29 00:42:18;;;;;;;22.92;16.08;;;;;;;18.31;100.00;95152.09;5033764;28;20079;-76
2022/07/29 00:44:45;;;;;;;18.20;14.65;;;;;;;18.29;100.00;95141.03;5036517;28;20037;-76
2022/07/29 00:47:13;;;;;;;22.65;15.07;;;;;;;18.26;100.00;95131.06;5045019;28;20534;-76
2022/07/29 00:49:41;;;;;;;21.13;16.58;;;;;;;18.29;100.00;95146.31;5031437;28;20055;-76
2022/07/29 00:52:10;;;;;;;21.30;16.10;;;;;;;18.27;100.00;95146.56;5026203;28;20464;-76
2022/07/29 00:54:39;;;;;;;20.65;16.30;;;;;;;18.25;100.00;95147.91;5024307;28;20057;-76
2022/07/29 00:57:11;;;;;;;21.30;17.02;;;;;;;18.24;100.00;95147.13;5039780;28;20120;-76
2022/07/29 00:59:38;;;;;;;20.20;16.42;;;;;;;18.19;100.00;95147.16;5039356;28;20590;-77
2022/07/29 01:02:05;;;;;;;30.05;17.67;;;;;;;18.05;100.00;95139.03;5053301;28;20037;-77
2022/07/29 01:04:33;;;;;;;23.92;16.58;;;;;;;18.11;100.00;95153.78;5042193;28;20114;-77
2022/07/29 01:07:04;;;;;;;24.38;16.98;;;;;;;18.01;100.00;95145.91;5034202;28;20044;-77
2022/07/29 01:09:36;;;;;;;22.05;17.35;;;;;;;18.01;100.00;95148.56;5026118;28;20037;-77
2022/07/29 01:12:16;;;;;;;27.15;19.08;;;;;;;17.91;100.00;95140.69;5016475;28;20056;-76
2022/07/29 01:14:44;;;;;;;32.25;19.35;;;;;;;17.92;100.00;95147.53;5030039;28;20084;-76
2022/07/29 01:17:50;;;;;;;25.05;17.88;;;;;;;17.86;100.00;95135.44;5025538;28;20127;-76
2022/07/29 01:20:31;;;;;;;21.88;17.75;;;;;;;17.81;100.00;95135.41;5020735;28;20508;-76
2022/07/29 01:23:23;;;;;;;27.23;18.90;;;;;;;17.77;100.00;95143.88;5031727;28;20064;-77
2022/07/29 01:26:28;;;;;;;23.38;18.38;;;;;;;17.75;100.00;95148.63;5033524;28;20107;-77
2022/07/29 01:29:10;;;;;;;;;;;;;;;17.69;100.00;95141.78;5053003;28;20072;-76
2022/07/29 01:31:44;;;;;;;22.25;17.88;;;;;;;17.66;100.00;95144.94;5045737;28;20638;-76
2022/07/29 01:34:54;;;;;;;21.27;16.63;;;;;;;17.64;100.00;95133.88;5039385;28;20048;-76
2022/07/29 01:37:28;;;;;;;;;;;;;;;17.57;100.00;95136.00;5031306;28;20037;-77
2022/07/29 01:39:57;;;;;;;21.23;15.83;;;;;;;17.41;100.00;95123.94;5052282;28;19950;-76
2022/07/29 01:42:43;;;;;;;24.08;15.60;;;;;;;17.52;100.00;95136.81;5032563;28;20475;-76
2022/07/29 01:45:16;;;;;;;21.60;16.00;;;;;;;17.49;100.00;95136.56;5048153;28;20425;-76
2022/07/29 01:47:52;;;;;;;20.02;15.00;;;;;;;17.55;100.00;95135.47;5030941;28;20524;-77
2022/07/29 01:50:26;;;;;;;20.33;14.73;;;;;;;17.57;100.00;95128.09;5054764;28;20055;-77
2022/07/29 01:52:58;;;;;;;23.10;15.20;;;;;;;17.52;100.00;95125.47;5035884;28;20554;-77
2022/07/29 01:55:30;;;;;;;31.25;14.23;;;;;;;17.53;100.00;95127.06;5054408;28;20036;-77
2022/07/29 01:58:00;;;;;;;21.98;14.05;;;;;;;17.55;100.00;95124.94;5033498;28;20433;-77
2022/07/29 02:00:31;;;;;;;16.90;12.93;;;;;;;17.49;100.00;95112.88;5054767;28;20037;-77
2022/07/29 02:03:07;;;;;;;15.73;12.55;;;;;;;17.52;100.00;95109.69;5053290;28;20041;-77
2022/07/29 02:05:37;;;;;;;18.85;14.02;;;;;;;17.47;100.00;95107.09;5015907;28;20057;-77
2022/07/29 02:08:06;;;;;;;21.58;14.48;;;;;;;17.52;100.00;95109.69;5030157;28;20132;-77
2022/07/29 02:10:35;;;;;;;19.50;14.27;;;;;;;17.55;100.00;95114.41;5056179;28;20608;-77
2022/07/29 02:13:04;;;;;;;20.38;14.55;;;;;;;17.58;100.00;95121.78;5051672;28;20041;-77
2022/07/29 02:15:34;;;;;;;18.73;13.45;;;;;;;17.54;100.00;95118.91;5050332;28;20824;-77
2022/07/29 02:18:09;;;;;;;19.40;13.88;;;;;;;17.62;100.00;95125.47;5052335;28;20048;-77
2022/07/29 02:20:39;;;;;;;21.95;13.60;;;;;;;17.60;100.00;95127.56;5053252;28;20123;-77
2022/07/29 02:23:09;;;;;;;20.20;13.27;;;;;;;17.60;100.00;95114.41;5035831;28;20040;-77
2022/07/29 02:25:37;;;;;;;15.48;12.25;;;;;;;17.67;100.00;95111.50;5049622;28;20544;-77
2022/07/29 02:28:07;;;;;;;14.95;11.80;;;;;;;17.71;100.00;95112.53;5016595;28;20722;-77
2022/07/29 02:30:38;;;;;;;16.20;10.82;;;;;;;17.81;100.00;95116.97;5024085;28;20041;-78
2022/07/29 02:33:07;;;;;;;15.40;11.82;;;;;;;17.74;100.00;95102.25;5048527;28;20040;-77
2022/07/29 02:35:34;;;;;;;18.92;12.63;;;;;;;17.83;100.00;95114.88;5041120;28;20048;-77
2022/07/29 02:40:50;;;;;;;18.80;12.63;;;;;;;17.81;100.00;95112.50;5052303;28;20445;-77
2022/07/29 02:43:19;;;;;;;17.75;13.88;;;;;;;17.76;100.00;95100.13;5032400;28;20129;-77
2022/07/29 02:45:51;;;;;;;19.00;14.02;;;;;;;17.77;100.00;95104.34;5036703;28;20048;-77
2022/07/29 02:48:23;;;;;;;19.83;14.10;;;;;;;17.81;100.00;95106.44;5036410;28;20044;-76
2022/07/29 02:50:59;;;;;;;22.58;13.88;;;;;;;17.76;100.00;95105.41;5049582;28;20564;-78
2022/07/29 02:53:27;;;;;;;18.23;12.93;;;;;;;17.74;100.00;95101.47;5040333;28;20044;-77
2022/07/29 02:56:07;;;;;;;17.13;13.02;;;;;;;17.63;100.00;95084.91;5027416;28;20553;-76
2022/07/29 02:58:40;;;;;;;16.70;13.43;;;;;;;17.69;100.00;95102.25;5030908;28;20263;-76
2022/07/29 03:01:16;;;;;;;15.05;12.38;;;;;;;17.68;100.00;95105.16;5034760;28;20135;-76
2022/07/29 03:03:49;;;;;;;13.43;10.95;;;;;;;17.64;100.00;95107.53;5048284;28;20052;-76
2022/07/29 03:06:17;;;;;;;19.65;12.00;;;;;;;17.58;100.00;95100.72;5045191;28;20517;-76
2022/07/29 03:09:04;;;;;;;17.38;12.00;;;;;;;17.62;100.00;95099.13;5038953;28;20148;-76
2022/07/29 03:11:40;;;;;;;13.63;10.65;;;;;;;17.62;100.00;95098.34;5022661;28;20048;-76
2022/07/29 03:14:18;;;;;;;16.42;9.88;;;;;;;17.70;100.00;95098.59;5024462;28;20048;-77
2022/07/29 03:16:47;;;;;;;16.50;11.20;;;;;;;17.67;100.00;95083.31;5047113;28;20504;-77
2022/07/29 03:19:14;;;;;;;13.45;9.40;;;;;;;17.66;100.00;95084.34;5049857;28;20053;-77
2022/07/29 03:21:41;;;;;;;13.48;9.18;;;;;;;17.81;100.00;95098.53;5054178;28;20522;-77
2022/07/29 03:24:09;;;;;;;11.43;9.10;;;;;;;17.83;100.00;95099.84;5051374;28;20124;-76
2022/07/29 03:26:37;;;;;;;8.95;7.20;;;;;;;17.87;100.00;95094.84;5032406;28;20044;-76
2022/07/29 03:29:04;;;;;;;9.82;7.40;;;;;;;17.88;100.00;95086.69;5034776;28;20476;-76
2022/07/29 03:31:31;;;;;;;9.00;7.13;;;;;;;17.85;100.00;95075.88;5042890;28;20041;-76
2022/07/29 03:33:59;;;;;;;10.98;7.25;;;;;;;18.07;100.00;95100.03;5051200;28;20041;-76
2022/07/29 03:36:26;;;;;;;11.63;7.28;;;;;;;18.12;100.00;95102.63;5010521;28;20100;-76
2022/07/29 03:38:54;;;;;;;10.32;7.47;;;;;;;18.16;100.00;95097.63;5032115;28;20048;-76
2022/07/29 03:41:24;;;;;;;13.20;8.05;;;;;;;18.20;100.00;95092.59;5044357;28;20040;-76
2022/07/29 03:43:51;;;;;;;10.10;7.32;;;;;;;18.23;100.00;95097.31;5047445;28;20329;-76
2022/07/29 03:46:22;;;;;;;10.02;6.80;;;;;;;18.23;100.00;95086.78;5054090;28;20041;-76
2022/07/29 03:48:56;;;;;;;10.77;7.10;;;;;;;18.22;100.00;95085.19;5032769;28;20055;-76
2022/07/29 03:51:25;;;;;;;8.68;6.90;;;;;;;18.30;100.00;95097.81;5010211;28;20139;-76
2022/07/29 03:54:03;;;;;;;12.02;6.65;;;;;;;18.27;100.00;95103.63;5029998;28;20044;-77
2022/07/29 03:56:39;;;;;;;15.60;6.90;;;;;;;18.24;100.00;95098.88;5027896;28;20472;-77
2022/07/29 03:59:07;;;;;;;7.55;5.75;;;;;;;18.25;100.00;95111.78;5050356;28;20051;-77
2022/07/29 04:01:36;;;;;;;8.30;6.75;;;;;;;18.26;100.00;95107.34;5052240;28;20040;-77
2022/07/29 04:04:04;;;;;;;7.22;6.22;;;;;;;18.26;100.00;95112.59;5053210;28;20045;-77
2022/07/29 04:06:41;;;;;;;8.60;5.70;;;;;;;18.12;100.00;95094.72;5043932;28;20068;-76
2022/07/29 04:09:09;;;;;;;8.60;6.13;;;;;;;18.19;100.00;95106.84;5024787;28;20060;-78
2022/07/29 04:11:38;;;;;;;10.40;6.68;;;;;;;18.18;100.00;95099.97;5023697;28;20053;-76
2022/07/29 04:14:26;;;;;;;7.95;6.53;;;;;;;18.19;100.00;95101.56;5048097;28;20551;-76
2022/07/29 04:16:53;;;;;;;10.43;6.20;;;;;;;18.36;100.00;95123.06;5034618;28;20067;-76
2022/07/29 04:19:20;;;;;;;11.18;7.55;;;;;;;18.38;100.00;95106.97;5049942;28;20094;-77
2022/07/29 04:21:47;;;;;;;7.57;5.70;;;;;;;18.46;100.00;95116.97;5040156;28;20168;-76
2022/07/29 04:24:14;;;;;;;10.32;6.72;;;;;;;18.52;100.00;95121.91;5026915;28;20530;-76
2022/07/29 04:26:42;;;;;;;16.88;7.30;;;;;;;18.59;100.00;95116.34;5041807;28;20047;-76
2022/07/29 04:29:09;;;;;;;8.75;6.35;;;;;;;18.66;100.00;95122.09;5052564;28;20044;-76
2022/07/29 04:31:36;;;;;;;7.53;6.05;;;;;;;18.58;100.00;95106.84;5041524;28;20164;-77
2022/07/29 04:34:03;;;;;;;13.80;6.20;;;;;;;18.72;100.00;95114.94;5050692;28;20683;-78
2022/07/29 04:36:30;;;;;;;10.35;6.00;;;;;;;18.80;100.00;95126.75;5037026;28;20191;-78
2022/07/29 04:38:57;;;;;;;13.02;5.93;;;;;;;18.76;100.00;95126.50;5025075;28;20498;-77
2022/07/29 04:41:25;;;;;;;7.32;5.80;;;;;;;18.72;100.00;95125.47;5000553;28;20703;-77
2022/07/29 04:44:00;;;;;;;;;;;;;;;18.69;100.00;95133.94;5030410;28;20041;-77
2022/07/29 04:46:27;;;;;;;7.53;5.65;;;;;;;18.69;100.00;95126.84;5040772;28;19920;-77
2022/07/29 04:48:55;;;;;;;11.75;6.60;;;;;;;18.70;100.00;95132.88;5046122;28;20080;-78
2022/07/29 04:51:22;;;;;;;8.18;6.82;;;;;;;18.71;100.00;95126.56;5039983;28;20047;-71
2022/07/29 04:53:48;;;;;;;10.23;6.07;;;;;;;18.76;100.00;95126.50;5042551;28;21408;-70
2022/07/29 04:56:15;;;;;;;10.43;5.30;;;;;;;18.81;100.00;95129.13;5049585;28;20045;-71
2022/07/29 04:58:42;;;;;;;7.88;6.43;;;;;;;18.83;100.00;95131.50;5049538;28;20543;-71
2022/07/29 05:01:09;;;;;;;6.57;5.60;;;;;;;18.87;100.00;95138.59;5024454;28;20065;-72
2022/07/29 05:03:36;;;;;;;8.85;5.78;;;;;;;18.92;100.00;95140.41;5054945;28;20076;-71
2022/07/29 05:06:03;;;;;;;6.13;5.45;;;;;;;18.95;100.00;95141.72;5046943;28;20040;-71
2022/07/29 05:08:30;;;;;;;13.60;7.38;;;;;;;19.01;100.00;95137.97;5047590;28;20119;-71
2022/07/29 05:10:56;;;;;;;12.73;6.20;;;;;;;18.95;100.00;95125.88;5054509;28;20076;-71
2022/07/29 05:13:37;;;;;;;7.75;6.20;;;;;;;19.14;100.00;95142.63;5053244;28;20164;-71
2022/07/29 05:16:12;;;;;;;9.25;5.60;;;;;;;19.17;100.00;95131.50;5033663;28;20136;-71
2022/07/29 05:18:40;;;;;;;11.18;6.07;;;;;;;19.34;100.00;95140.84;5055416;28;20238;-71
2022/07/29 05:21:07;;;;;;;10.57;5.82;;;;;;;19.42;100.00;95142.91;5051337;28;20046;-71
2022/07/29 05:23:34;;;;;;;12.98;5.60;;;;;;;19.65;100.00;95152.69;5054795;28;20094;-70
2022/07/29 05:26:01;;;;;;;13.65;6.07;;;;;;;19.83;100.00;95158.38;5054979;28;20037;-70
2022/07/29 05:28:28;;;;;;;9.70;7.53;;;;;;;20.00;100.00;95153.38;5030553;28;20048;-73
2022/07/29 05:30:55;;;;;;;15.60;8.88;;;;;;;20.15;100.00;95149.81;5031092;28;20718;-74
2022/07/29 05:33:23;;;;;;;12.50;7.78;;;;;;;20.38;100.00;95158.78;5021333;28;20052;-74
2022/07/29 05:36:02;;;;;;;7.38;6.40;;;;;;;20.40;100.00;95159.28;5044793;28;20355;-74
2022/07/29 05:38:28;;;;;;;9.52;7.35;;;;;;;20.62;100.00;95168.53;5051248;28;20037;-72
2022/07/29 05:40:59;;;;;;;10.27;6.35;;;;;;;20.73;100.00;95154.06;5026762;28;20045;-69
2022/07/29 05:43:27;;;;;;;9.70;6.13;;;;;;;20.90;100.00;95169.44;5040457;28;20036;-71
2022/07/29 05:45:55;;;;;;;9.13;6.05;;;;;;;20.91;100.00;95139.25;5043651;28;20045;-80
2022/07/29 05:48:26;;;;;;;11.18;5.47;;;;;;;21.08;100.00;95145.88;5053297;28;20039;-76
2022/07/29 05:50:54;;;;;;;6.40;5.50;;;;;;;21.39;99.64;95170.78;5042235;28;20110;-73
2022/07/29 05:53:21;;;;;;;10.77;5.82;;;;;;;21.52;99.47;95169.28;5041850;28;20049;-68
2022/07/29 05:55:49;;;;;;;6.20;5.15;;;;;;;21.66;95.69;95168.50;5042501;28;20044;-67
2022/07/29 05:58:16;;;;;;;6.82;4.82;;;;;;;21.79;94.67;95167.75;5040241;28;20126;-67
2022/07/29 06:00:43;;;;;;;9.05;4.53;;;;;;;21.92;94.69;95164.31;5048317;28;20044;-66
2022/07/29 06:03:11;;;;;;;8.35;5.60;;;;;;;22.06;92.19;95171.50;5032938;28;20048;-66
2022/07/29 06:05:37;;;;;;;9.35;5.05;;;;;;;22.11;92.30;95158.09;5040599;28;20049;-67
2022/07/29 06:08:07;;;;;;;5.35;4.40;;;;;;;22.02;92.42;95139.47;5026030;28;20037;-65
2022/07/29 06:10:35;;;;;;;6.00;4.85;;;;;;;22.26;92.02;95168.44;5042453;28;20041;-64
2022/07/29 06:13:02;;;;;;;5.30;4.70;;;;;;;22.41;89.73;95166.56;5028552;28;20776;-65
2022/07/29 06:15:29;;;;;;;6.38;5.18;;;;;;;22.53;91.05;95172.91;5048038;28;20239;-65
2022/07/29 06:17:56;;;;;;;12.00;4.82;;;;;;;22.70;89.68;95174.94;5037571;28;20057;-69
2022/07/29 06:20:29;;;;;;;7.90;5.40;;;;;;;22.64;87.74;95151.47;5019565;28;20067;-71
2022/07/29 06:22:58;;;;;;;6.80;4.35;;;;;;;22.96;88.38;95176.22;5044304;28;20542;-72
2022/07/29 06:25:28;;;;;;;5.93;4.95;;;;;;;23.03;87.53;95176.59;5048113;28;20049;-72
2022/07/29 06:27:56;;;;;;;8.10;5.43;;;;;;;23.07;85.83;95167.78;5048356;28;20048;-72
2022/07/29 06:30:23;;;;;;;9.52;5.93;;;;;;;23.18;87.32;95172.84;5032081;28;20124;-71
2022/07/29 06:32:50;;;;;;;7.53;5.30;;;;;;;23.21;88.04;95161.59;5028034;28;20045;-72
2022/07/29 06:35:17;;;;;;;8.00;5.90;;;;;;;23.43;87.16;95177.53;5019215;28;20053;-72
2022/07/29 06:38:04;;;;;;;7.10;5.63;;;;;;;23.55;87.12;95165.53;5034820;28;20540;-72
2022/07/29 06:41:05;;;;;;;9.40;6.10;;;;;;;23.72;86.17;95170.97;5048907;28;20835;-71
2022/07/29 06:43:38;;;;;;;10.48;5.40;;;;;;;23.88;85.05;95167.91;5038971;28;20075;-65
2022/07/29 06:46:21;;;;;;;5.70;4.85;;;;;;;23.89;81.82;95169.47;5034749;28;20036;-65
2022/07/29 06:48:49;;;;;;;9.82;4.95;;;;;;;24.09;81.31;95163.59;5048671;28;20050;-64
2022/07/29 06:51:17;;;;;;;12.13;5.05;;;;;;;24.26;80.40;95162.88;5035958;28;20059;-65
2022/07/29 06:53:52;;;;;;;5.00;4.30;;;;;;;24.50;78.22;95167.75;5034953;28;20522;-65
2022/07/29 06:56:35;;;;;;;5.28;3.58;;;;;;;24.71;74.26;95161.88;5044823;28;20094;-65
2022/07/29 06:59:10;;;;;;;6.35;3.85;;;;;;;24.86;72.50;95158.72;5049685;28;20041;-70
2022/07/29 07:01:39;;;;;;;6.57;3.80;;;;;;;25.00;71.32;95164.69;5046563;28;20534;-65
2022/07/29 07:04:08;;;;;;;5.13;3.40;;;;;;;25.12;71.05;95171.25;5049083;28;20045;-65
2022/07/29 07:06:36;;;;;;;15.05;3.33;;;;;;;25.23;68.61;95161.84;5051790;28;20129;-65
2022/07/29 07:09:03;;;;;;;11.48;3.58;;;;;;;25.46;66.00;95164.31;5048454;28;20044;-65
2022/07/29 07:11:30;;;;;;;4.95;3.28;;;;;;;25.57;65.49;95162.91;5047467;28;20054;-65
2022/07/29 07:13:57;;;;;;;4.50;3.10;;;;;;;25.64;64.41;95170.41;5043841;28;20597;-65
2022/07/29 07:16:29;;;;;;;8.15;3.58;;;;;;;25.79;64.39;95169.13;5048860;28;20113;-64
2022/07/29 07:18:56;;;;;;;5.15;2.95;;;;;;;25.94;64.52;95173.94;5052501;28;20065;-64
2022/07/29 07:21:23;;;;;;;10.68;3.20;;;;;;;26.07;63.83;95183.63;5042033;28;20037;-64
2022/07/29 07:23:50;;;;;;;8.57;3.78;;;;;;;26.15;63.37;95175.91;5046766;28;20036;-65
2022/07/29 07:26:16;;;;;;;7.18;3.40;;;;;;;26.26;63.38;95177.09;5040865;28;20506;-65
2022/07/29 07:28:43;;;;;;;7.03;3.00;;;;;;;26.24;60.85;95172.06;5049471;28;20040;-65
2022/07/29 07:31:11;;;;;;;6.53;3.15;;;;;;;26.35;62.41;95183.16;5043612;28;20052;-65
2022/07/29 07:33:38;;;;;;;8.95;3.55;;;;;;;26.48;59.67;95166.09;5050439;28;20412;-75
2022/07/29 07:36:05;;;;;;;3.42;2.95;;;;;;;26.63;60.54;95175.47;5030946;28;20045;-64
2022/07/29 07:38:32;;;;;;;6.80;3.15;;;;;;;26.73;58.61;95168.97;5056520;28;20040;-71
2022/07/29 07:40:59;;;;;;;10.32;3.97;;;;;;;26.88;58.94;95173.72;5056108;28;20029;-65
2022/07/29 07:43:25;;;;;;;4.30;2.70;;;;;;;26.92;58.08;95163.16;5046828;28;20045;-65
2022/07/29 07:45:52;;;;;;;6.93;3.20;;;;;;;27.03;58.72;95163.56;5044762;28;20048;-68
2022/07/29 07:48:20;;;;;;;6.72;2.90;;;;;;;27.05;56.92;95145.28;5041680;28;20033;-70
2022/07/29 07:50:49;;;;;;;3.58;2.65;;;;;;;27.33;57.39;95150.84;5053457;28;20163;-75
2022/07/29 07:53:16;;;;;;;7.90;3.20;;;;;;;27.53;56.14;95154.59;5019503;28;20056;-76
2022/07/29 07:55:43;;;;;;;4.15;3.00;;;;;;;27.63;55.42;95156.84;5047985;28;20044;-77
2022/07/29 07:58:30;;;;;;;6.55;3.17;;;;;;;27.79;54.75;95156.19;5032197;28;20045;-65
2022/07/29 08:00:57;;;;;;;5.05;3.00;;;;;;;27.86;53.51;95156.44;5035202;28;20044;-64
2022/07/29 08:03:24;;;;;;;5.72;3.00;;;;;;;27.98;54.72;95155.66;5042246;28;20122;-72
2022/07/29 08:05:51;;;;;;;3.58;3.00;;;;;;;28.00;53.57;95156.91;5050753;28;20053;-70
2022/07/29 08:08:18;;;;;;;4.63;3.58;;;;;;;28.10;52.81;95149.53;5033169;28;20066;-71
2022/07/29 08:10:51;;;;;;;7.43;2.88;;;;;;;28.22;51.28;95162.94;5046796;28;20139;-71
2022/07/29 08:13:20;;;;;;;3.17;2.88;;;;;;;28.25;52.04;95162.25;5044976;28;20095;-71
2022/07/29 08:15:57;;;;;;;7.15;2.72;;;;;;;28.12;50.04;95163.38;5040848;28;20048;-71
2022/07/29 08:18:26;;;;;;;3.20;2.60;;;;;;;28.27;50.80;95160.03;5049324;28;20111;-71
2022/07/29 08:20:53;;;;;;;3.38;2.60;;;;;;;28.60;51.73;95167.16;5049953;28;20518;-72
2022/07/29 08:23:22;;;;;;;2.95;2.33;;;;;;;28.71;48.29;95168.22;5046264;28;20049;-72
2022/07/29 08:25:51;;;;;;;6.45;2.45;;;;;;;28.81;49.75;95155.47;5028084;28;20437;-72
2022/07/29 08:28:20;;;;;;;3.72;2.85;;;;;;;29.00;47.17;95166.38;5047499;28;20041;-72
2022/07/29 08:30:52;;;;;;;3.25;2.50;;;;;;;29.00;46.29;95155.63;5049529;28;20049;-72
2022/07/29 08:33:18;;;;;;;4.22;2.63;;;;;;;29.10;45.82;95157.84;5049797;28;20040;-72
2022/07/29 08:35:45;;;;;;;3.50;2.50;;;;;;;29.27;45.79;95156.00;5030032;28;20052;-72
2022/07/29 08:38:12;;;;;;;3.80;3.22;;;;;;;29.51;44.32;95150.53;5049034;28;20046;-72
2022/07/29 08:40:39;;;;;;;3.47;2.90;;;;;;;29.53;42.99;95142.91;5031886;28;20576;-72
2022/07/29 08:43:08;;;;;;;5.63;2.78;;;;;;;29.68;43.95;95148.63;5031250;28;20041;-72
2022/07/29 08:45:44;;;;;;;8.20;2.78;;;;;;;29.86;43.98;95149.88;5048614;28;20050;-72
2022/07/29 08:48:22;;;;;;;4.38;2.67;;;;;;;30.07;43.91;95143.44;5050371;28;20072;-72
2022/07/29 08:50:54;;;;;;;4.57;2.40;;;;;;;30.20;43.16;95138.75;5036857;28;20462;-73
2022/07/29 08:53:26;;;;;;;5.97;3.13;;;;;;;30.29;43.28;95156.22;5025120;28;20052;-72
2022/07/29 08:55:53;;;;;;;5.13;2.60;;;;;;;30.50;40.65;95147.09;5047582;28;20045;-72
2022/07/29 08:58:21;;;;;;;3.72;2.55;;;;;;;30.63;39.73;95151.25;5031324;28;20040;-72
2022/07/29 09:00:54;;;;;;;14.00;3.08;;;;;;;30.60;38.36;95154.63;5029489;28;20037;-72
2022/07/29 09:03:29;;;;;;;5.10;2.90;;;;;;;30.82;39.58;95152.38;5045778;28;20044;-73
2022/07/29 09:05:57;;;;;;;4.18;2.75;;;;;;;30.94;36.82;95149.59;5037109;28;20107;-73
2022/07/29 09:08:25;;;;;;;4.13;2.63;;;;;;;31.06;36.70;95154.81;5010505;28;20512;-73
2022/07/29 09:10:52;;;;;;;3.88;2.25;;;;;;;31.07;37.11;95150.22;5045778;28;20543;-73
2022/07/29 09:13:19;;;;;;;8.30;2.47;;;;;;;31.20;36.47;95153.53;5025033;28;20055;-74
2022/07/29 09:15:45;;;;;;;3.80;1.98;;;;;;;31.50;36.37;95155.66;5043169;28;20045;-73
2022/07/29 09:18:34;;;;;;;3.83;2.38;;;;;;;31.65;35.96;95151.28;5023311;28;20037;-73
2022/07/29 09:24:08;;;;;;;5.97;3.97;;;;;;;31.77;34.57;95157.25;5026242;28;20042;-72
2022/07/29 09:26:46;;;;;;;2.60;2.08;;;;;;;31.76;33.77;95153.00;5025857;28;20046;-72
2022/07/29 09:29:16;;;;;;;2.08;1.77;;;;;;;31.75;33.34;95154.16;5025400;28;20032;-72
2022/07/29 09:31:46;;;;;;;3.25;2.72;;;;;;;31.76;33.51;95144.94;5024054;28;20045;-72
2022/07/29 09:34:16;;;;;;;8.23;3.90;;;;;;;31.98;33.65;95158.75;5020978;28;20042;-73
2022/07/29 09:36:45;;;;;;;12.93;2.85;;;;;;;31.95;32.71;95154.09;5023147;28;20045;-72
2022/07/29 09:39:14;;;;;;;2.22;1.95;;;;;;;31.76;32.13;95155.69;5020533;28;20339;-72
2022/07/29 09:41:53;;;;;;;4.00;2.45;;;;;;;31.95;33.60;95146.00;5028571;28;20737;-73
2022/07/29 09:44:22;;;;;;;4.15;2.17;;;;;;;32.29;32.80;95151.56;5030596;28;20051;-73
2022/07/29 09:46:58;;;;;;;2.70;2.15;;;;;;;32.35;32.67;95155.50;5033277;28;20053;-73
2022/07/29 09:49:25;;;;;;;3.28;2.03;;;;;;;32.44;31.51;95156.00;5019715;28;20175;-73
2022/07/29 09:52:03;;;;;;;5.70;2.20;;;;;;;32.74;31.51;95155.28;5026382;28;20048;-71
2022/07/29 09:54:36;;;;;;;1.90;1.70;;;;;;;32.39;30.81;95145.53;5027653;28;20502;-71
2022/07/29 09:57:12;;;;;;;5.72;2.20;;;;;;;32.57;32.50;95146.56;5014255;28;20108;-71
2022/07/29 09:59:39;;;;;;;9.77;2.15;;;;;;;32.43;31.62;95146.38;5025550;28;20049;-71
2022/07/29 10:02:17;;;;;;;2.58;1.80;;;;;;;32.03;31.97;95144.97;5031149;28;20042;-71
2022/07/29 10:04:49;;;;;;;5.13;3.67;;;;;;;32.13;32.35;95127.47;5032541;28;20075;-71
2022/07/29 10:07:16;;;;;;;5.32;2.65;;;;;;;32.05;33.40;95129.25;5028647;28;20046;-72
2022/07/29 10:09:54;;;;;;;3.15;2.30;;;;;;;32.24;33.45;95128.38;5032810;28;20415;-73
2022/07/29 10:12:22;;;;;;;5.22;2.30;;;;;;;32.67;33.19;95141.72;5027226;28;20155;-75
2022/07/29 10:14:51;;;;;;;4.32;2.15;;;;;;;32.67;31.55;95129.00;5033785;28;20476;-76
2022/07/29 10:17:19;;;;;;;9.30;2.35;;;;;;;33.05;32.03;95126.34;5026937;28;20037;-76
2022/07/29 10:19:46;;;;;;;2.17;1.90;;;;;;;33.37;32.45;95126.72;5030938;28;20045;-76
2022/07/29 10:22:13;;;;;;;2.47;1.80;;;;;;;33.76;30.10;95114.75;5040682;28;20041;-76
2022/07/29 10:25:01;;;;;;;4.93;2.17;;;;;;;34.06;29.87;95123.47;5042561;28;20041;-76
2022/07/29 10:27:29;;;;;;;3.28;2.25;;;;;;;34.24;30.85;95101.22;5032192;28;20208;-79
2022/07/29 10:29:58;;;;;;;3.35;2.30;;;;;;;34.30;30.50;95110.50;5029009;28;20614;-78
2022/07/29 10:32:38;;;;;;;6.82;2.67;;;;;;;34.29;30.66;95114.38;5047381;28;20044;-77
2022/07/29 10:35:17;;;;;;;3.63;2.78;;;;;;;34.36;30.40;95106.31;5043582;28;20612;-77
2022/07/29 10:37:57;;;;;;;2.92;2.42;;;;;;;34.66;29.56;95105.28;5028699;28;20060;-77
2022/07/29 10:43:47;;;;;;;4.55;2.35;;;;;;;34.05;30.81;95084.09;5046661;28;20050;-71
2022/07/29 10:46:18;;;;;;;10.35;2.53;;;;;;;34.49;30.92;95100.59;5048989;28;20132;-71
2022/07/29 10:49:18;;;;;;;12.07;2.70;;;;;;;34.62;30.17;95099.84;5050593;28;20585;-71
2022/07/29 10:52:03;;;;;;;6.00;2.78;;;;;;;34.67;30.77;95098.72;4964980;28;20056;-71
2022/07/29 10:54:39;;;;;;;14.70;3.20;;;;;;;35.02;29.89;95094.63;5048913;28;20071;-72
2022/07/29 10:57:26;;;;;;;10.65;3.00;;;;;;;35.16;29.44;95093.88;5046472;28;20521;-72
2022/07/29 11:00:14;;;;;;;4.03;2.83;;;;;;;35.23;29.22;95094.69;5041258;28;20040;-72
2022/07/29 11:02:44;;;;;;;3.55;3.10;;;;;;;35.32;29.61;95085.44;5044646;28;20071;-72
2022/07/29 11:05:17;;;;;;;5.75;2.85;;;;;;;35.54;29.41;95087.00;5048192;28;20047;-72
2022/07/29 11:08:12;;;;;;;3.30;2.55;;;;;;;35.51;28.20;95090.50;5046770;28;20049;-72
2022/07/29 11:11:27;;;;;;;4.70;3.17;;;;;;;35.63;29.02;95085.84;5046375;28;20044;-72
2022/07/29 11:13:55;;;;;;;6.72;3.03;;;;;;;36.08;29.88;95075.38;5045264;28;20044;-72
2022/07/29 11:16:23;;;;;;;3.10;2.80;;;;;;;36.03;28.02;95083.91;5048151;28;20043;-72
2022/07/29 11:19:12;;;;;;;3.38;2.85;;;;;;;36.25;27.16;95080.03;5046468;28;20044;-72
2022/07/29 11:21:42;;;;;;;5.57;2.90;;;;;;;36.20;27.67;95083.13;5020342;28;20434;-72
2022/07/29 11:24:31;;;;;;;6.15;3.50;;;;;;;36.16;27.59;95080.41;5031594;28;20047;-72
2022/07/29 11:27:10;;;;;;;5.53;3.20;;;;;;;36.26;26.91;95070.72;5008650;28;20423;-71
2022/07/29 11:29:41;;;;;;;5.97;2.67;;;;;;;36.39;27.86;95064.88;5009269;28;20506;-72
2022/07/29 11:32:12;;;;;;;6.15;2.92;;;;;;;36.61;26.88;95063.63;5031697;28;20025;-72
2022/07/29 11:34:44;;;;;;;3.83;3.13;;;;;;;36.68;25.38;95058.22;5011177;28;20040;-72
2022/07/29 11:37:12;;;;;;;4.53;3.10;;;;;;;36.75;25.77;95060.09;4995097;28;20475;-72
2022/07/29 11:39:46;;;;;;;3.17;2.88;;;;;;;36.73;26.31;95060.53;5027857;28;20588;-71
2022/07/29 11:42:25;;;;;;;3.50;3.10;;;;;;;37.09;26.15;95059.53;5024631;28;20041;-72
2022/07/29 11:45:17;;;;;;;3.38;3.08;;;;;;;37.02;25.16;95054.91;4992925;28;20056;-72
2022/07/29 11:48:05;;;;;;;5.28;3.05;;;;;;;36.76;25.77;95058.19;5030192;28;20045;-72
2022/07/29 11:50:52;;;;;;;3.03;2.67;;;;;;;36.98;25.41;95053.41;5015543;28;20041;-72
2022/07/29 11:53:20;;;;;;;4.30;2.75;;;;;;;37.10;25.19;95051.00;5010661;28;20052;-66
2022/07/29 11:55:55;;;;;;;5.22;3.58;;;;;;;37.47;24.95;95057.75;5030883;28;20045;-66